Terminal Aerodrome Forecast
Issued by NWS

Home | Current Version | Previous Version | Text Only | Print | Product List | Glossary On
Versions: 1 2 3 4 5 6 7 8 9 10 11 12 13 14 15 16 17
494
FTUS44 KLZK 301120
TAFHRO
TAF
KHRO 301120Z 3012/3112 VRB03KT P6SM SCT250
      TEMPO 3012/3014 5SM BR
     FM301400 16006KT P6SM VCTS SCT050CB BKN080
      TEMPO 3016/3020 5SM -TSRA BR BKN025CB
     FM310000 VRB05KT P6SM VCTS SCT040CB BKN080=

USA.gov is the U.S. government's official web portal to all federal, state and local government web resources and services.